createdAt,value
2018-09-26T00:02:27.777Z,9.60
2018-09-26T00:05:02.435Z,21.02
2018-09-26T00:07:37.191Z,16.93
2018-09-26T00:10:11.858Z,12.00
2018-09-26T00:12:46.500Z,6.95
2018-09-26T00:15:21.063Z,3.55
2018-09-26T00:17:55.632Z,8.55
2018-09-26T00:20:30.329Z,3.20
2018-09-26T00:23:04.956Z,9.55
2018-09-26T00:25:39.717Z,3.05
2018-09-26T00:28:14.423Z,9.83
2018-09-26T00:30:48.929Z,11.75
2018-09-26T00:33:23.750Z,4.50
2018-09-26T00:35:58.372Z,13.72
2018-09-26T00:38:33.140Z,6.03
2018-09-26T00:41:07.708Z,3.20
2018-09-26T00:43:42.331Z,5.65
2018-09-26T00:46:17.099Z,3.10
2018-09-26T00:48:51.942Z,6.20
2018-09-26T00:51:26.479Z,3.98
2018-09-26T00:54:01.287Z,4.55
2018-09-26T00:56:35.875Z,6.03
2018-09-26T00:59:10.466Z,48.00
2018-09-26T01:01:45.074Z,107.52
2018-09-26T01:04:19.701Z,63.25
2018-09-26T01:06:54.478Z,14.03
2018-09-26T01:09:29.985Z,13.58
2018-09-26T01:12:04.561Z,2.42
2018-09-26T01:14:39.282Z,7.55
2018-09-26T01:17:13.974Z,17.95
2018-09-26T01:19:48.661Z,8.10
2018-09-26T01:23:26.232Z,4.05
2018-09-26T01:26:01.050Z,12.65
2018-09-26T01:28:35.833Z,13.38
2018-09-26T01:31:10.507Z,25.80
2018-09-26T01:33:45.635Z,7.10
2018-09-26T01:36:20.432Z,32.85
2018-09-26T01:38:54.935Z,66.57
2018-09-26T01:41:29.728Z,37.58
2018-09-26T01:44:04.266Z,24.77
2018-09-26T01:46:38.831Z,8.73
2018-09-26T01:49:13.446Z,12.63
2018-09-26T01:51:49.048Z,5.75
2018-09-26T01:54:23.679Z,7.60
2018-09-26T01:56:58.336Z,15.10
2018-09-26T01:59:33.322Z,8.63
2018-09-26T02:02:08.056Z,10.38
2018-09-26T02:04:42.763Z,12.35
2018-09-26T02:07:17.467Z,9.83
2018-09-26T02:09:52.012Z,2.02
2018-09-26T02:12:26.732Z,4.83
2018-09-26T02:15:01.335Z,10.50
2018-09-26T02:17:35.923Z,2.55
2018-09-26T02:20:10.487Z,4.40
2018-09-26T02:22:45.249Z,9.40
2018-09-26T02:25:19.775Z,3.47
2018-09-26T02:27:54.316Z,1.55
2018-09-26T02:30:28.898Z,2.15
2018-09-26T02:33:03.559Z,7.70
2018-09-26T02:35:38.191Z,4.85
2018-09-26T02:38:12.789Z,9.90
2018-09-26T02:40:47.330Z,12.03
2018-09-26T02:43:21.862Z,57.48
2018-09-26T02:45:56.629Z,35.95
2018-09-26T02:48:37.685Z,20.88
2018-09-26T02:51:12.483Z,3.60
2018-09-26T02:53:47.395Z,1.75
2018-09-26T02:56:22.077Z,2.87
2018-09-26T02:58:56.863Z,3.15
2018-09-26T03:01:31.611Z,7.05
2018-09-26T03:04:06.322Z,3.60
2018-09-26T03:06:40.980Z,8.13
2018-09-26T03:09:15.778Z,3.80
2018-09-26T03:11:50.410Z,3.70
2018-09-26T03:14:24.955Z,1.37
2018-09-26T03:16:59.805Z,3.75
2018-09-26T03:19:34.567Z,6.15
2018-09-26T03:22:09.288Z,1.92
2018-09-26T03:24:43.891Z,3.37
2018-09-26T03:27:18.450Z,2.05
2018-09-26T03:29:52.989Z,3.50
2018-09-26T03:32:28.554Z,8.50
2018-09-26T03:35:03.498Z,12.88
2018-09-26T03:37:38.394Z,4.30
2018-09-26T03:40:13.116Z,12.63
2018-09-26T03:42:47.662Z,46.23
2018-09-26T03:45:22.564Z,73.67
2018-09-26T03:47:57.142Z,31.02
2018-09-26T03:50:31.820Z,9.18
2018-09-26T03:53:06.744Z,3.20
2018-09-26T03:55:41.365Z,8.55
2018-09-26T03:58:15.992Z,14.85
2018-09-26T04:00:50.706Z,3.02
2018-09-26T04:03:25.377Z,7.15
2018-09-26T04:05:59.900Z,7.58
2018-09-26T04:08:34.462Z,2.95
2018-09-26T04:11:09.429Z,3.65
2018-09-26T04:13:44.717Z,1.90
2018-09-26T04:16:19.531Z,4.40
2018-09-26T04:18:55.276Z,4.37
2018-09-26T04:21:30.073Z,4.28
2018-09-26T04:24:04.709Z,5.30
2018-09-26T04:26:39.598Z,9.73
2018-09-26T04:29:14.126Z,4.70
2018-09-26T04:31:48.955Z,4.62
2018-09-26T04:34:23.716Z,2.08
2018-09-26T04:36:58.398Z,2.98
2018-09-26T04:39:32.997Z,2.37
2018-09-26T04:42:07.795Z,11.03
2018-09-26T04:44:42.798Z,36.13
2018-09-26T04:47:17.498Z,39.95
2018-09-26T04:49:52.226Z,25.62
2018-09-26T04:52:27.025Z,10.63
2018-09-26T04:55:01.665Z,7.28
2018-09-26T04:57:36.480Z,5.33
2018-09-26T05:00:11.434Z,4.12
2018-09-26T05:02:46.117Z,8.05
2018-09-26T05:05:20.759Z,10.50
2018-09-26T05:07:55.700Z,6.33
2018-09-26T05:10:31.673Z,8.10
2018-09-26T05:13:06.553Z,4.42
2018-09-26T05:15:42.366Z,6.55
2018-09-26T05:18:17.104Z,4.45
2018-09-26T05:20:51.711Z,3.37
2018-09-26T05:23:26.534Z,4.60
2018-09-26T05:26:01.336Z,5.65
2018-09-26T05:28:36.139Z,4.83
2018-09-26T05:31:10.816Z,8.13
2018-09-26T05:33:45.375Z,2.60
2018-09-26T05:36:20.083Z,6.37
2018-09-26T05:38:54.699Z,3.08
2018-09-26T05:41:29.345Z,15.05
2018-09-26T05:44:04.057Z,45.75
2018-09-26T05:46:38.725Z,57.00
2018-09-26T05:49:13.440Z,32.45
2018-09-26T05:51:48.146Z,66.62
2018-09-26T05:54:22.996Z,14.45
2018-09-26T05:56:57.664Z,8.35
2018-09-26T05:59:32.203Z,4.50
2018-09-26T06:02:06.960Z,10.15
2018-09-26T06:04:41.682Z,5.30
2018-09-26T06:07:16.165Z,8.03
2018-09-26T06:09:50.850Z,5.33
2018-09-26T06:12:25.361Z,6.58
2018-09-26T06:15:00.157Z,6.90
2018-09-26T06:17:34.966Z,9.18
2018-09-26T06:20:09.718Z,4.95
2018-09-26T06:22:44.602Z,11.75
2018-09-26T06:25:19.317Z,7.95
2018-09-26T06:27:53.998Z,3.27
2018-09-26T06:30:28.496Z,17.87
2018-09-26T06:33:03.060Z,16.23
2018-09-26T06:35:37.709Z,24.40
2018-09-26T06:38:12.327Z,20.08
2018-09-26T06:40:47.025Z,14.63
2018-09-26T06:43:22.110Z,84.85
2018-09-26T06:45:56.773Z,59.33
2018-09-26T06:48:31.362Z,58.20
2018-09-26T06:51:05.760Z,21.80
2018-09-26T06:53:40.423Z,12.07
2018-09-26T06:56:14.966Z,10.00
2018-09-26T06:58:49.783Z,6.25
2018-09-26T07:01:24.465Z,3.27
2018-09-26T07:03:59.162Z,8.48
2018-09-26T07:06:33.891Z,6.70
2018-09-26T07:09:09.322Z,9.73
2018-09-26T07:11:43.936Z,12.93
2018-09-26T07:14:18.425Z,5.03
2018-09-26T07:16:53.153Z,5.85
2018-09-26T07:19:27.739Z,2.62
2018-09-26T07:22:02.236Z,3.80
2018-09-26T07:24:37.083Z,11.43
2018-09-26T07:27:11.604Z,14.65
2018-09-26T07:29:46.132Z,20.27
2018-09-26T07:32:20.990Z,5.83
2018-09-26T07:34:55.770Z,5.65
2018-09-26T07:37:30.602Z,5.42
2018-09-26T07:40:05.958Z,7.17
2018-09-26T07:42:40.706Z,6.45
2018-09-26T07:45:15.542Z,7.12
2018-09-26T07:47:50.234Z,4.42
2018-09-26T07:50:25.849Z,5.67
2018-09-26T07:53:00.639Z,7.17
2018-09-26T07:55:35.574Z,5.90
2018-09-26T07:58:10.332Z,13.62
2018-09-26T08:00:45.107Z,6.12
2018-09-26T08:03:19.833Z,2.92
2018-09-26T08:05:54.544Z,6.12
2018-09-26T08:08:29.448Z,15.08
2018-09-26T08:11:04.432Z,17.40
2018-09-26T08:13:39.171Z,41.50
2018-09-26T08:16:13.923Z,27.00
2018-09-26T08:18:48.646Z,9.93
2018-09-26T08:21:23.355Z,3.95
2018-09-26T08:23:57.988Z,9.93
2018-09-26T08:26:32.320Z,5.00
2018-09-26T08:29:06.810Z,3.75
2018-09-26T08:31:41.436Z,5.70
2018-09-26T08:34:15.851Z,11.68
2018-09-26T08:36:50.414Z,6.20
2018-09-26T08:39:25.073Z,7.62
2018-09-26T08:41:59.896Z,4.22
2018-09-26T08:44:34.323Z,4.65
2018-09-26T08:47:08.851Z,4.75
2018-09-26T08:49:43.639Z,5.03
2018-09-26T08:52:19.259Z,2.85
2018-09-26T08:54:53.767Z,18.17
2018-09-26T08:57:28.473Z,3.92
2018-09-26T09:00:03.140Z,4.90
2018-09-26T09:02:37.861Z,6.58
2018-09-26T09:05:12.396Z,2.85
2018-09-26T09:07:47.170Z,5.87
2018-09-26T09:10:22.009Z,15.38
2018-09-26T09:12:56.999Z,62.15
2018-09-26T09:15:31.874Z,43.42
2018-09-26T09:18:07.715Z,16.00
2018-09-26T09:20:43.450Z,23.38
2018-09-26T09:23:18.229Z,13.13
2018-09-26T09:25:53.537Z,3.17
2018-09-26T09:28:28.289Z,3.80
2018-09-26T09:31:03.082Z,12.75
2018-09-26T09:33:37.825Z,25.68
2018-09-26T09:36:12.592Z,30.88
2018-09-26T09:38:47.492Z,62.80
2018-09-26T09:41:22.334Z,65.10
2018-09-26T09:43:57.203Z,12.18
2018-09-26T09:46:32.687Z,13.38
2018-09-26T09:49:08.220Z,5.25
2018-09-26T09:51:42.971Z,8.58
2018-09-26T09:54:17.607Z,10.28
2018-09-26T09:56:52.404Z,6.10
2018-09-26T09:59:27.584Z,14.87
2018-09-26T10:02:03.299Z,5.78
2018-09-26T10:04:38.365Z,5.58
2018-09-26T10:07:13.570Z,3.52
2018-09-26T10:09:50.045Z,5.37
2018-09-26T10:12:24.990Z,4.28
2018-09-26T10:15:00.156Z,24.20
2018-09-26T10:17:35.424Z,7.03
2018-09-26T10:20:10.010Z,2.75
2018-09-26T10:22:44.876Z,18.87
2018-09-26T10:25:20.361Z,10.58
2018-09-26T10:27:57.832Z,5.40
2018-09-26T10:30:33.121Z,1.92
2018-09-26T10:33:08.405Z,42.60
2018-09-26T10:35:42.937Z,42.88
2018-09-26T10:38:18.646Z,51.75
2018-09-26T10:40:53.438Z,17.00
2018-09-26T10:43:28.523Z,28.30
2018-09-26T10:46:03.257Z,2.10
2018-09-26T10:48:37.680Z,5.25
2018-09-26T10:51:12.348Z,16.23
2018-09-26T10:53:47.064Z,22.65
2018-09-26T10:56:21.788Z,1.72
2018-09-26T10:58:56.448Z,4.60
2018-09-26T11:01:33.262Z,3.55
2018-09-26T11:04:08.794Z,3.30
2018-09-26T11:06:44.933Z,9.45
2018-09-26T11:09:19.901Z,4.70
2018-09-26T11:11:54.853Z,5.05
2018-09-26T11:14:29.651Z,2.30
2018-09-26T11:17:04.273Z,6.30
2018-09-26T11:19:39.150Z,7.80
2018-09-26T11:22:14.029Z,5.90
2018-09-26T11:24:48.653Z,2.85
2018-09-26T11:27:23.183Z,4.05
2018-09-26T11:29:58.033Z,23.92
2018-09-26T11:32:33.247Z,64.95
2018-09-26T11:35:08.142Z,56.28
2018-09-26T11:37:43.223Z,21.00
2018-09-26T11:40:18.067Z,3.80
2018-09-26T11:42:53.300Z,9.78
2018-09-26T11:45:27.991Z,4.75
2018-09-26T11:48:02.996Z,8.53
2018-09-26T11:50:37.747Z,3.45
2018-09-26T11:53:12.055Z,4.72
2018-09-26T11:55:46.799Z,8.53
2018-09-26T11:58:21.402Z,2.65
2018-09-26T12:00:56.154Z,5.42
2018-09-26T12:03:30.705Z,3.90
2018-09-26T12:06:05.641Z,5.03
2018-09-26T12:08:40.309Z,3.52
2018-09-26T12:11:15.165Z,3.70
2018-09-26T12:13:49.865Z,1.22
2018-09-26T12:16:24.739Z,4.83
2018-09-26T12:18:59.376Z,3.92
2018-09-26T12:21:34.007Z,2.25
2018-09-26T12:24:08.701Z,3.33
2018-09-26T12:26:43.406Z,3.83
2018-09-26T12:29:18.140Z,6.62
2018-09-26T12:31:52.715Z,25.77
2018-09-26T12:34:27.277Z,38.67
2018-09-26T12:37:02.794Z,18.92
2018-09-26T12:39:37.366Z,8.10
2018-09-26T12:42:12.176Z,9.55
2018-09-26T12:44:47.811Z,7.60
2018-09-26T12:47:22.990Z,4.53
2018-09-26T12:49:58.442Z,4.40
2018-09-26T12:52:33.462Z,3.42
2018-09-26T12:55:08.261Z,2.62
2018-09-26T12:57:42.951Z,4.03
2018-09-26T13:00:17.670Z,2.67
2018-09-26T13:02:52.561Z,25.65
2018-09-26T13:05:27.547Z,3.90
2018-09-26T13:08:02.969Z,5.37
2018-09-26T13:10:37.745Z,6.95
2018-09-26T13:13:12.377Z,7.37
2018-09-26T13:15:47.326Z,3.85
2018-09-26T13:18:22.057Z,3.00
2018-09-26T13:20:57.259Z,2.98
2018-09-26T13:23:32.046Z,1.47
2018-09-26T13:26:06.905Z,1.32
2018-09-26T13:28:41.667Z,5.67
2018-09-26T13:31:16.633Z,33.50
2018-09-26T13:33:51.336Z,24.47
2018-09-26T13:36:26.069Z,15.10
2018-09-26T13:39:00.779Z,3.95
2018-09-26T13:41:35.480Z,3.05
2018-09-26T13:44:10.177Z,3.02
2018-09-26T13:46:45.159Z,4.92
2018-09-26T13:49:19.809Z,4.67
2018-09-26T13:51:54.408Z,8.25
2018-09-26T13:54:29.427Z,8.50
2018-09-26T13:57:04.070Z,5.17
2018-09-26T13:59:38.789Z,3.30
2018-09-26T14:02:13.641Z,3.65
2018-09-26T14:04:48.193Z,3.70
2018-09-26T14:07:24.011Z,14.60
2018-09-26T14:09:58.716Z,1.55
2018-09-26T14:12:33.400Z,3.25
2018-09-26T14:15:08.100Z,1.20
2018-09-26T14:17:42.687Z,7.47
2018-09-26T14:20:34.143Z,3.35
2018-09-26T14:23:09.099Z,10.63
2018-09-26T14:25:43.845Z,9.70
2018-09-26T14:28:18.716Z,16.50
2018-09-26T14:30:53.598Z,35.20
2018-09-26T14:33:28.464Z,27.65
2018-09-26T14:36:03.768Z,30.10
2018-09-26T14:38:38.716Z,7.65
2018-09-26T14:41:13.419Z,6.05
2018-09-26T14:43:48.978Z,7.33
2018-09-26T14:49:07.962Z,4.60
2018-09-26T14:51:42.591Z,7.22
2018-09-26T14:54:17.434Z,6.65
2018-09-26T14:56:52.144Z,2.95
2018-09-26T14:59:26.814Z,2.17
2018-09-26T15:02:01.711Z,6.30
2018-09-26T15:04:36.492Z,15.75
2018-09-26T15:07:11.340Z,8.85
2018-09-26T15:09:46.254Z,5.75
2018-09-26T15:12:21.028Z,3.17
2018-09-26T15:14:56.607Z,5.65
2018-09-26T15:17:31.244Z,6.08
2018-09-26T15:20:06.709Z,4.35
2018-09-26T15:22:41.639Z,7.83
2018-09-26T15:25:16.357Z,4.03
2018-09-26T15:27:51.234Z,57.30
2018-09-26T15:30:25.968Z,51.73
2018-09-26T15:33:00.861Z,19.00
2018-09-26T15:35:35.746Z,11.03
2018-09-26T15:38:11.225Z,6.17
2018-09-26T15:40:45.932Z,9.95
2018-09-26T15:43:21.676Z,9.05
2018-09-26T15:45:56.566Z,10.35
2018-09-26T15:48:31.443Z,6.65
2018-09-26T15:51:06.305Z,2.40
2018-09-26T15:53:43.110Z,4.85
2018-09-26T15:56:17.983Z,5.30
2018-09-26T15:58:52.737Z,3.35
2018-09-26T16:01:29.564Z,4.78
2018-09-26T16:04:04.364Z,4.67
2018-09-26T16:06:39.156Z,4.90
2018-09-26T16:09:13.816Z,5.37
2018-09-26T16:11:49.037Z,5.62
2018-09-26T16:14:23.669Z,6.55
2018-09-26T16:16:58.366Z,10.85
2018-09-26T16:19:33.098Z,10.82
2018-09-26T16:22:07.837Z,15.45
2018-09-26T16:24:43.500Z,5.50
2018-09-26T16:27:18.215Z,24.47
2018-09-26T16:29:53.091Z,20.25
2018-09-26T16:32:28.084Z,38.55
2018-09-26T16:35:02.904Z,70.12
2018-09-26T16:37:38.864Z,36.23
2018-09-26T16:40:13.642Z,35.20
2018-09-26T16:42:48.765Z,6.35
2018-09-26T16:45:23.848Z,6.78
2018-09-26T16:47:58.764Z,5.92
2018-09-26T16:50:33.643Z,7.40
2018-09-26T16:53:08.598Z,6.67
2018-09-26T16:55:43.659Z,14.53
2018-09-26T16:58:18.437Z,3.30
2018-09-26T17:00:53.189Z,17.95
2018-09-26T17:03:27.880Z,6.70
2018-09-26T17:06:05.143Z,7.08
2018-09-26T17:08:41.951Z,14.98
2018-09-26T17:11:16.690Z,5.40
2018-09-26T17:13:51.404Z,5.50
2018-09-26T17:16:26.427Z,6.28
2018-09-26T17:19:01.213Z,10.65
2018-09-26T17:21:36.140Z,13.83
2018-09-26T17:24:12.560Z,40.98
2018-09-26T17:26:52.054Z,40.92
2018-09-26T17:29:27.935Z,51.55
2018-09-26T17:32:06.150Z,43.50
2018-09-26T17:34:41.260Z,15.72
2018-09-26T17:37:17.955Z,12.85
2018-09-26T17:39:53.220Z,28.65
2018-09-26T17:42:28.635Z,27.70
2018-09-26T17:45:04.692Z,49.83
2018-09-26T17:47:40.432Z,78.80
2018-09-26T17:50:16.241Z,51.63
2018-09-26T17:52:51.721Z,25.48
2018-09-26T17:55:26.645Z,15.78
2018-09-26T17:58:03.006Z,22.05
2018-09-26T18:00:38.204Z,18.82
2018-09-26T18:03:13.105Z,16.40
2018-09-26T18:05:49.547Z,12.90
2018-09-26T18:08:25.363Z,21.62
2018-09-26T18:11:03.004Z,19.00
2018-09-26T18:13:39.534Z,16.85
2018-09-26T18:16:15.108Z,25.72
2018-09-26T18:18:49.860Z,92.65
2018-09-26T18:21:24.494Z,144.07
2018-09-26T18:23:59.793Z,212.25
2018-09-26T18:26:34.742Z,62.23
2018-09-26T18:29:09.955Z,37.38
2018-09-26T18:31:44.464Z,11.20
2018-09-26T18:34:19.212Z,15.50
2018-09-26T18:36:54.027Z,8.98
2018-09-26T18:39:30.629Z,6.97
2018-09-26T18:42:05.907Z,23.62
2018-09-26T18:44:42.365Z,18.32
2018-09-26T18:47:17.322Z,25.97
2018-09-26T18:49:52.810Z,20.43
2018-09-26T18:52:27.636Z,12.28
2018-09-26T18:55:03.913Z,31.73
2018-09-26T18:57:39.309Z,15.13
2018-09-26T19:00:14.669Z,14.73
2018-09-26T19:02:49.993Z,20.57
2018-09-26T19:05:25.674Z,12.50
2018-09-26T19:08:00.383Z,19.73
2018-09-26T19:10:35.154Z,33.30
2018-09-26T19:13:10.852Z,21.02
2018-09-26T19:15:45.798Z,49.83
2018-09-26T19:18:21.351Z,112.15
2018-09-26T19:20:56.362Z,81.60
2018-09-26T19:23:32.193Z,37.10
2018-09-26T19:26:08.625Z,47.85
2018-09-26T19:28:43.408Z,47.80
2018-09-26T19:31:18.082Z,53.90
2018-09-26T19:33:52.911Z,43.80
2018-09-26T19:36:28.006Z,17.20
2018-09-26T19:39:03.057Z,27.10
2018-09-26T19:41:37.719Z,15.25
2018-09-26T19:44:12.474Z,8.55
2018-09-26T19:46:47.379Z,24.25
2018-09-26T19:49:22.095Z,15.20
2018-09-26T19:51:56.617Z,16.35
2018-09-26T19:54:31.258Z,25.27
2018-09-26T19:57:06.175Z,16.52
2018-09-26T19:59:41.858Z,20.72
2018-09-26T20:02:16.791Z,17.20
2018-09-26T20:04:51.433Z,24.98
2018-09-26T20:07:26.492Z,15.38
2018-09-26T20:10:01.324Z,19.60
2018-09-26T20:12:35.911Z,18.00
2018-09-26T20:15:11.076Z,20.68
2018-09-26T20:17:45.463Z,113.47
2018-09-26T20:20:21.010Z,92.67
2018-09-26T20:22:55.836Z,83.20
2018-09-26T20:25:31.553Z,21.15
2018-09-26T20:28:06.481Z,20.77
2018-09-26T20:30:41.042Z,18.02
2018-09-26T20:33:16.102Z,27.00
2018-09-26T20:35:50.743Z,46.15
2018-09-26T20:38:25.456Z,19.70
2018-09-26T20:41:00.685Z,9.33
2018-09-26T20:43:36.366Z,7.72
2018-09-26T20:46:11.143Z,19.62
2018-09-26T20:48:45.915Z,8.05
2018-09-26T20:55:02.112Z,16.82
2018-09-26T20:57:36.899Z,46.13
2018-09-26T21:00:11.545Z,64.70
2018-09-26T21:02:46.439Z,51.83
2018-09-26T21:05:21.148Z,16.05
2018-09-26T21:07:58.983Z,4.28
2018-09-26T21:10:34.431Z,15.38
2018-09-26T21:13:09.464Z,6.92
2018-09-26T21:15:44.301Z,12.82
2018-09-26T21:18:18.947Z,13.48
2018-09-26T21:20:54.077Z,14.78
2018-09-26T21:23:28.942Z,23.87
2018-09-26T21:26:03.900Z,27.75
2018-09-26T21:28:38.853Z,20.60
2018-09-26T21:31:13.412Z,19.25
2018-09-26T21:33:48.204Z,16.82
2018-09-26T21:36:23.057Z,7.60
2018-09-26T21:38:58.134Z,12.88
2018-09-26T21:41:32.708Z,9.15
2018-09-26T21:44:07.480Z,18.62
2018-09-26T21:46:42.277Z,19.12
2018-09-26T21:49:16.814Z,11.25
2018-09-26T21:51:51.420Z,18.45
2018-09-26T21:54:26.319Z,34.85
2018-09-26T21:57:00.942Z,74.55
2018-09-26T21:59:35.698Z,80.55
2018-09-26T22:02:10.315Z,76.37
2018-09-26T22:04:44.970Z,20.30
2018-09-26T22:07:19.749Z,11.80
2018-09-26T22:09:54.582Z,16.75
2018-09-26T22:12:29.250Z,9.75
2018-09-26T22:15:03.871Z,9.80
2018-09-26T22:17:38.517Z,18.85
2018-09-26T22:20:13.220Z,13.83
2018-09-26T22:22:48.509Z,10.90
2018-09-26T22:25:23.245Z,19.07
2018-09-26T22:27:58.087Z,25.20
2018-09-26T22:30:32.914Z,25.55
2018-09-26T22:33:07.719Z,20.23
2018-09-26T22:35:42.285Z,16.80
2018-09-26T22:38:16.898Z,24.02
2018-09-26T22:40:51.603Z,20.85
2018-09-26T22:43:26.210Z,47.10
2018-09-26T22:46:00.944Z,22.77
2018-09-26T22:48:35.699Z,32.67
2018-09-26T22:51:10.521Z,119.40
2018-09-26T22:53:45.415Z,60.17
2018-09-26T22:56:20.152Z,66.05
2018-09-26T22:58:54.766Z,81.57
2018-09-26T23:01:29.437Z,45.85
2018-09-26T23:04:04.324Z,27.70
2018-09-26T23:06:38.952Z,14.85
2018-09-26T23:09:13.677Z,22.65
2018-09-26T23:11:48.378Z,13.70
2018-09-26T23:14:22.949Z,13.32
2018-09-26T23:16:57.886Z,17.17
2018-09-26T23:19:32.463Z,23.62
2018-09-26T23:22:07.451Z,21.45
2018-09-26T23:24:42.232Z,16.85
2018-09-26T23:27:16.965Z,14.60
2018-09-26T23:32:57.793Z,23.10
2018-09-26T23:35:32.702Z,14.50
2018-09-26T23:38:07.460Z,13.78
2018-09-26T23:40:42.155Z,11.20
2018-09-26T23:43:16.845Z,17.48
2018-09-26T23:45:51.661Z,38.00
2018-09-26T23:48:26.495Z,42.43
2018-09-26T23:51:01.165Z,60.78
2018-09-26T23:53:36.041Z,46.55
2018-09-26T23:56:10.766Z,14.20
2018-09-26T23:58:45.628Z,12.30
